sensor_id;sensor_type;location;lat;lon;timestamp;P1;durP1;ratioP1;P2;durP2;ratioP2
19173;SDS011;9719;49.322;8.536;2023-02-28T00:04:45;2.90;;;2.70;;
19173;SDS011;9719;49.322;8.536;2023-02-28T00:10:03;2.93;;;2.73;;
19173;SDS011;9719;49.322;8.536;2023-02-28T00:15:08;3.00;;;2.80;;
19173;SDS011;9719;49.322;8.536;2023-02-28T00:20:12;3.43;;;2.63;;
19173;SDS011;9719;49.322;8.536;2023-02-28T00:25:15;4.60;;;2.90;;
19173;SDS011;9719;49.322;8.536;2023-02-28T00:30:19;2.90;;;2.70;;
19173;SDS011;9719;49.322;8.536;2023-02-28T00:35:24;3.30;;;3.00;;
19173;SDS011;9719;49.322;8.536;2023-02-28T00:40:25;3.10;;;2.90;;
19173;SDS011;9719;49.322;8.536;2023-02-28T00:45:27;2.77;;;2.63;;
19173;SDS011;9719;49.322;8.536;2023-02-28T00:50:30;2.83;;;2.63;;
19173;SDS011;9719;49.322;8.536;2023-02-28T00:55:32;3.13;;;2.83;;
19173;SDS011;9719;49.322;8.536;2023-02-28T01:00:33;2.80;;;2.60;;
19173;SDS011;9719;49.322;8.536;2023-02-28T01:05:36;4.10;;;3.63;;
19173;SDS011;9719;49.322;8.536;2023-02-28T01:10:38;3.77;;;3.47;;
19173;SDS011;9719;49.322;8.536;2023-02-28T01:15:40;2.80;;;2.60;;
19173;SDS011;9719;49.322;8.536;2023-02-28T01:20:46;3.70;;;3.00;;
19173;SDS011;9719;49.322;8.536;2023-02-28T01:25:49;2.67;;;2.47;;
19173;SDS011;9719;49.322;8.536;2023-02-28T01:30:50;2.87;;;2.60;;
19173;SDS011;9719;49.322;8.536;2023-02-28T01:35:58;2.93;;;2.73;;
19173;SDS011;9719;49.322;8.536;2023-02-28T01:41:00;3.20;;;3.00;;
19173;SDS011;9719;49.322;8.536;2023-02-28T01:46:02;3.03;;;2.83;;
19173;SDS011;9719;49.322;8.536;2023-02-28T01:51:12;3.10;;;2.90;;
19173;SDS011;9719;49.322;8.536;2023-02-28T01:56:17;2.93;;;2.80;;
19173;SDS011;9719;49.322;8.536;2023-02-28T02:01:24;3.30;;;3.00;;
19173;SDS011;9719;49.322;8.536;2023-02-28T02:06:30;3.83;;;3.03;;
19173;SDS011;9719;49.322;8.536;2023-02-28T02:11:39;3.50;;;3.00;;
19173;SDS011;9719;49.322;8.536;2023-02-28T02:16:50;3.23;;;3.00;;
19173;SDS011;9719;49.322;8.536;2023-02-28T02:22:13;3.50;;;3.20;;
19173;SDS011;9719;49.322;8.536;2023-02-28T02:27:39;3.70;;;3.50;;
19173;SDS011;9719;49.322;8.536;2023-02-28T02:33:02;3.53;;;3.30;;
19173;SDS011;9719;49.322;8.536;2023-02-28T02:38:19;3.50;;;3.20;;
19173;SDS011;9719;49.322;8.536;2023-02-28T02:43:28;4.20;;;3.47;;
19173;SDS011;9719;49.322;8.536;2023-02-28T02:48:36;3.50;;;3.30;;
19173;SDS011;9719;49.322;8.536;2023-02-28T02:53:44;3.80;;;3.50;;
19173;SDS011;9719;49.322;8.536;2023-02-28T02:58:50;3.83;;;3.53;;
19173;SDS011;9719;49.322;8.536;2023-02-28T03:03:55;4.30;;;4.00;;
19173;SDS011;9719;49.322;8.536;2023-02-28T03:09:00;4.20;;;3.80;;
19173;SDS011;9719;49.322;8.536;2023-02-28T03:14:05;3.50;;;3.10;;
19173;SDS011;9719;49.322;8.536;2023-02-28T03:19:31;3.63;;;3.43;;
19173;SDS011;9719;49.322;8.536;2023-02-28T03:24:45;3.60;;;3.40;;
19173;SDS011;9719;49.322;8.536;2023-02-28T03:29:51;3.73;;;3.53;;
19173;SDS011;9719;49.322;8.536;2023-02-28T03:35:02;4.30;;;3.87;;
19173;SDS011;9719;49.322;8.536;2023-02-28T03:40:11;4.13;;;3.73;;
19173;SDS011;9719;49.322;8.536;2023-02-28T03:45:15;3.97;;;3.67;;
19173;SDS011;9719;49.322;8.536;2023-02-28T03:50:21;4.90;;;4.47;;
19173;SDS011;9719;49.322;8.536;2023-02-28T03:55:26;4.53;;;4.13;;
19173;SDS011;9719;49.322;8.536;2023-02-28T04:00:34;5.57;;;4.23;;
19173;SDS011;9719;49.322;8.536;2023-02-28T04:05:47;4.50;;;4.10;;
19173;SDS011;9719;49.322;8.536;2023-02-28T04:10:55;4.70;;;4.40;;
19173;SDS011;9719;49.322;8.536;2023-02-28T04:16:01;5.47;;;4.97;;
19173;SDS011;9719;49.322;8.536;2023-02-28T04:21:11;4.87;;;4.37;;
19173;SDS011;9719;49.322;8.536;2023-02-28T04:26:15;6.27;;;4.57;;
19173;SDS011;9719;49.322;8.536;2023-02-28T04:31:16;4.90;;;4.50;;
19173;SDS011;9719;49.322;8.536;2023-02-28T04:36:18;5.73;;;4.93;;
19173;SDS011;9719;49.322;8.536;2023-02-28T04:41:21;4.70;;;4.30;;
19173;SDS011;9719;49.322;8.536;2023-02-28T04:46:24;5.63;;;5.13;;
19173;SDS011;9719;49.322;8.536;2023-02-28T04:51:25;5.97;;;5.37;;
19173;SDS011;9719;49.322;8.536;2023-02-28T04:56:28;4.77;;;4.47;;
19173;SDS011;9719;49.322;8.536;2023-02-28T05:01:31;4.77;;;4.47;;
19173;SDS011;9719;49.322;8.536;2023-02-28T05:06:33;5.03;;;4.63;;
19173;SDS011;9719;49.322;8.536;2023-02-28T05:11:36;5.13;;;4.63;;
19173;SDS011;9719;49.322;8.536;2023-02-28T05:16:39;6.27;;;4.30;;
19173;SDS011;9719;49.322;8.536;2023-02-28T05:21:41;5.20;;;4.70;;
19173;SDS011;9719;49.322;8.536;2023-02-28T05:26:52;5.13;;;4.63;;
19173;SDS011;9719;49.322;8.536;2023-02-28T05:31:55;4.27;;;3.97;;
19173;SDS011;9719;49.322;8.536;2023-02-28T05:36:57;4.43;;;4.13;;
19173;SDS011;9719;49.322;8.536;2023-02-28T05:42:00;4.37;;;3.97;;
19173;SDS011;9719;49.322;8.536;2023-02-28T05:47:01;4.57;;;4.17;;
19173;SDS011;9719;49.322;8.536;2023-02-28T05:52:03;5.03;;;4.63;;
19173;SDS011;9719;49.322;8.536;2023-02-28T05:57:06;7.13;;;5.97;;
19173;SDS011;9719;49.322;8.536;2023-02-28T06:02:08;5.17;;;4.73;;
19173;SDS011;9719;49.322;8.536;2023-02-28T06:07:13;4.83;;;4.43;;
19173;SDS011;9719;49.322;8.536;2023-02-28T06:12:16;4.87;;;4.00;;
19173;SDS011;9719;49.322;8.536;2023-02-28T06:17:18;4.73;;;4.33;;
19173;SDS011;9719;49.322;8.536;2023-02-28T06:22:20;4.63;;;4.33;;
19173;SDS011;9719;49.322;8.536;2023-02-28T06:27:23;5.33;;;4.83;;
19173;SDS011;9719;49.322;8.536;2023-02-28T06:32:24;4.97;;;4.57;;
19173;SDS011;9719;49.322;8.536;2023-02-28T06:37:26;6.70;;;5.10;;
19173;SDS011;9719;49.322;8.536;2023-02-28T06:42:29;4.47;;;4.17;;
19173;SDS011;9719;49.322;8.536;2023-02-28T06:47:32;4.77;;;4.27;;
19173;SDS011;9719;49.322;8.536;2023-02-28T06:52:33;5.20;;;4.70;;
19173;SDS011;9719;49.322;8.536;2023-02-28T06:57:38;5.00;;;4.60;;
19173;SDS011;9719;49.322;8.536;2023-02-28T07:02:40;4.63;;;4.23;;
19173;SDS011;9719;49.322;8.536;2023-02-28T07:07:41;5.30;;;4.40;;
19173;SDS011;9719;49.322;8.536;2023-02-28T07:12:46;4.67;;;4.20;;
19173;SDS011;9719;49.322;8.536;2023-02-28T07:17:48;5.20;;;4.80;;
19173;SDS011;9719;49.322;8.536;2023-02-28T07:22:50;4.70;;;4.30;;
19173;SDS011;9719;49.322;8.536;2023-02-28T07:27:57;4.17;;;3.87;;
19173;SDS011;9719;49.322;8.536;2023-02-28T07:33:00;5.80;;;4.33;;
19173;SDS011;9719;49.322;8.536;2023-02-28T07:38:01;3.87;;;3.60;;
19173;SDS011;9719;49.322;8.536;2023-02-28T07:43:05;4.97;;;4.57;;
19173;SDS011;9719;49.322;8.536;2023-02-28T07:48:06;4.63;;;4.23;;
19173;SDS011;9719;49.322;8.536;2023-02-28T07:53:09;5.03;;;4.00;;
19173;SDS011;9719;49.322;8.536;2023-02-28T07:58:12;4.23;;;3.93;;
19173;SDS011;9719;49.322;8.536;2023-02-28T08:03:14;4.03;;;3.77;;
19173;SDS011;9719;49.322;8.536;2023-02-28T08:08:16;5.23;;;4.83;;
19173;SDS011;9719;49.322;8.536;2023-02-28T08:13:19;4.80;;;4.40;;
19173;SDS011;9719;49.322;8.536;2023-02-28T08:18:21;5.13;;;4.73;;
19173;SDS011;9719;49.322;8.536;2023-02-28T08:23:23;6.57;;;5.67;;
19173;SDS011;9719;49.322;8.536;2023-02-28T08:28:26;5.87;;;5.07;;
19173;SDS011;9719;49.322;8.536;2023-02-28T08:33:27;4.87;;;4.37;;
19173;SDS011;9719;49.322;8.536;2023-02-28T08:38:29;5.30;;;4.83;;
19173;SDS011;9719;49.322;8.536;2023-02-28T08:43:32;4.87;;;4.27;;
19173;SDS011;9719;49.322;8.536;2023-02-28T08:48:34;5.63;;;5.10;;
19173;SDS011;9719;49.322;8.536;2023-02-28T08:53:38;5.40;;;4.77;;
19173;SDS011;9719;49.322;8.536;2023-02-28T08:58:42;5.77;;;5.27;;
19173;SDS011;9719;49.322;8.536;2023-02-28T09:03:45;5.00;;;4.43;;
19173;SDS011;9719;49.322;8.536;2023-02-28T09:08:49;5.03;;;4.53;;
19173;SDS011;9719;49.322;8.536;2023-02-28T09:13:52;4.90;;;4.50;;
19173;SDS011;9719;49.322;8.536;2023-02-28T09:18:55;4.43;;;4.03;;
19173;SDS011;9719;49.322;8.536;2023-02-28T09:23:57;5.37;;;4.97;;
19173;SDS011;9719;49.322;8.536;2023-02-28T09:29:00;5.27;;;4.77;;
19173;SDS011;9719;49.322;8.536;2023-02-28T09:34:03;5.17;;;4.67;;
19173;SDS011;9719;49.322;8.536;2023-02-28T09:39:05;5.50;;;4.70;;
19173;SDS011;9719;49.322;8.536;2023-02-28T09:44:09;4.67;;;4.23;;
19173;SDS011;9719;49.322;8.536;2023-02-28T09:49:19;4.78;;;4.35;;
19173;SDS011;9719;49.322;8.536;2023-02-28T09:54:26;3.83;;;3.53;;
19173;SDS011;9719;49.322;8.536;2023-02-28T09:59:34;3.42;;;3.08;;
19173;SDS011;9719;49.322;8.536;2023-02-28T10:04:42;3.65;;;3.35;;
19173;SDS011;9719;49.322;8.536;2023-02-28T10:09:52;4.10;;;3.78;;
19173;SDS011;9719;49.322;8.536;2023-02-28T10:14:57;3.47;;;3.17;;
19173;SDS011;9719;49.322;8.536;2023-02-28T10:20:03;4.00;;;3.70;;
19173;SDS011;9719;49.322;8.536;2023-02-28T10:25:16;4.13;;;3.83;;
19173;SDS011;9719;49.322;8.536;2023-02-28T10:30:20;4.07;;;3.58;;
19173;SDS011;9719;49.322;8.536;2023-02-28T10:35:23;4.38;;;4.00;;
19173;SDS011;9719;49.322;8.536;2023-02-28T10:40:27;4.47;;;4.07;;
19173;SDS011;9719;49.322;8.536;2023-02-28T10:45:33;5.18;;;4.00;;
19173;SDS011;9719;49.322;8.536;2023-02-28T10:50:37;4.15;;;3.85;;
19173;SDS011;9719;49.322;8.536;2023-02-28T10:55:44;4.18;;;3.88;;
19173;SDS011;9719;49.322;8.536;2023-02-28T11:00:47;4.68;;;4.28;;
19173;SDS011;9719;49.322;8.536;2023-02-28T11:05:49;4.30;;;4.00;;
19173;SDS011;9719;49.322;8.536;2023-02-28T11:10:53;3.97;;;3.67;;
19173;SDS011;9719;49.322;8.536;2023-02-28T11:15:59;4.13;;;3.83;;
19173;SDS011;9719;49.322;8.536;2023-02-28T11:21:03;3.97;;;3.60;;
19173;SDS011;9719;49.322;8.536;2023-02-28T11:26:05;4.93;;;4.60;;
19173;SDS011;9719;49.322;8.536;2023-02-28T11:31:17;4.50;;;4.10;;
19173;SDS011;9719;49.322;8.536;2023-02-28T11:36:23;5.15;;;4.68;;
19173;SDS011;9719;49.322;8.536;2023-02-28T11:41:30;4.13;;;3.83;;
19173;SDS011;9719;49.322;8.536;2023-02-28T11:46:45;4.07;;;3.78;;
19173;SDS011;9719;49.322;8.536;2023-02-28T11:51:52;4.15;;;3.85;;
19173;SDS011;9719;49.322;8.536;2023-02-28T11:57:00;4.53;;;4.13;;
19173;SDS011;9719;49.322;8.536;2023-02-28T12:02:22;4.50;;;4.00;;
19173;SDS011;9719;49.322;8.536;2023-02-28T12:07:28;3.92;;;3.63;;
19173;SDS011;9719;49.322;8.536;2023-02-28T12:12:38;4.18;;;3.88;;
19173;SDS011;9719;49.322;8.536;2023-02-28T12:17:54;4.57;;;4.18;;
19173;SDS011;9719;49.322;8.536;2023-02-28T12:23:10;3.42;;;3.22;;
19173;SDS011;9719;49.322;8.536;2023-02-28T12:28:25;4.00;;;3.70;;
19173;SDS011;9719;49.322;8.536;2023-02-28T12:33:33;3.90;;;3.60;;
19173;SDS011;9719;49.322;8.536;2023-02-28T12:38:39;4.38;;;4.00;;
19173;SDS011;9719;49.322;8.536;2023-02-28T12:43:46;4.35;;;4.05;;
19173;SDS011;9719;49.322;8.536;2023-02-28T12:48:53;4.00;;;3.60;;
19173;SDS011;9719;49.322;8.536;2023-02-28T12:54:00;3.92;;;3.63;;
19173;SDS011;9719;49.322;8.536;2023-02-28T12:59:13;4.30;;;3.88;;
19173;SDS011;9719;49.322;8.536;2023-02-28T13:04:28;4.10;;;3.80;;
19173;SDS011;9719;49.322;8.536;2023-02-28T13:09:44;3.88;;;3.58;;
19173;SDS011;9719;49.322;8.536;2023-02-28T13:15:01;4.20;;;3.80;;
19173;SDS011;9719;49.322;8.536;2023-02-28T13:20:14;4.40;;;3.90;;
19173;SDS011;9719;49.322;8.536;2023-02-28T13:31:04;6.03;;;4.60;;
19173;SDS011;9719;49.322;8.536;2023-02-28T13:36:09;5.32;;;3.90;;
19173;SDS011;9719;49.322;8.536;2023-02-28T13:41:46;5.47;;;4.97;;
19173;SDS011;9719;49.322;8.536;2023-02-28T13:52:23;5.32;;;4.97;;
19173;SDS011;9719;49.322;8.536;2023-02-28T13:57:28;4.97;;;4.47;;
19173;SDS011;9719;49.322;8.536;2023-02-28T14:02:44;5.22;;;4.82;;
19173;SDS011;9719;49.322;8.536;2023-02-28T14:08:07;5.57;;;5.07;;
19173;SDS011;9719;49.322;8.536;2023-02-28T14:18:48;4.72;;;4.32;;
19173;SDS011;9719;49.322;8.536;2023-02-28T14:24:07;5.40;;;5.00;;
19173;SDS011;9719;49.322;8.536;2023-02-28T14:29:30;6.18;;;5.22;;
19173;SDS011;9719;49.322;8.536;2023-02-28T14:34:42;5.25;;;4.78;;
19173;SDS011;9719;49.322;8.536;2023-02-28T14:39:48;5.55;;;5.07;;
19173;SDS011;9719;49.322;8.536;2023-02-28T14:44:53;5.75;;;5.25;;
19173;SDS011;9719;49.322;8.536;2023-02-28T14:49:56;5.60;;;5.10;;
19173;SDS011;9719;49.322;8.536;2023-02-28T14:55:01;5.85;;;5.32;;
19173;SDS011;9719;49.322;8.536;2023-02-28T15:00:11;6.03;;;5.43;;
19173;SDS011;9719;49.322;8.536;2023-02-28T15:05:26;5.70;;;5.20;;
19173;SDS011;9719;49.322;8.536;2023-02-28T15:10:30;5.40;;;4.90;;
19173;SDS011;9719;49.322;8.536;2023-02-28T15:15:35;5.68;;;5.18;;
19173;SDS011;9719;49.322;8.536;2023-02-28T15:20:43;5.93;;;5.43;;
19173;SDS011;9719;49.322;8.536;2023-02-28T15:25:47;5.77;;;5.27;;
19173;SDS011;9719;49.322;8.536;2023-02-28T15:30:52;7.50;;;5.55;;
19173;SDS011;9719;49.322;8.536;2023-02-28T15:36:05;5.80;;;5.28;;
19173;SDS011;9719;49.322;8.536;2023-02-28T15:41:23;5.23;;;4.77;;
19173;SDS011;9719;49.322;8.536;2023-02-28T15:46:26;5.80;;;5.20;;
19173;SDS011;9719;49.322;8.536;2023-02-28T15:51:29;6.57;;;5.97;;
19173;SDS011;9719;49.322;8.536;2023-02-28T15:56:35;6.23;;;5.73;;
19173;SDS011;9719;49.322;8.536;2023-02-28T16:01:43;6.67;;;6.03;;
19173;SDS011;9719;49.322;8.536;2023-02-28T16:06:45;6.67;;;5.87;;
19173;SDS011;9719;49.322;8.536;2023-02-28T16:11:50;6.83;;;5.87;;
19173;SDS011;9719;49.322;8.536;2023-02-28T16:16:56;5.90;;;5.40;;
19173;SDS011;9719;49.322;8.536;2023-02-28T16:22:04;6.37;;;5.77;;
19173;SDS011;9719;49.322;8.536;2023-02-28T16:27:07;6.33;;;5.63;;
19173;SDS011;9719;49.322;8.536;2023-02-28T16:32:17;7.07;;;5.77;;
19173;SDS011;9719;49.322;8.536;2023-02-28T16:37:18;6.77;;;6.27;;
19173;SDS011;9719;49.322;8.536;2023-02-28T16:42:22;6.43;;;5.83;;
19173;SDS011;9719;49.322;8.536;2023-02-28T16:47:26;7.07;;;5.73;;
19173;SDS011;9719;49.322;8.536;2023-02-28T16:52:28;9.70;;;7.57;;
19173;SDS011;9719;49.322;8.536;2023-02-28T16:57:31;8.20;;;7.03;;
19173;SDS011;9719;49.322;8.536;2023-02-28T17:02:32;7.60;;;5.93;;
19173;SDS011;9719;49.322;8.536;2023-02-28T17:07:34;6.37;;;5.70;;
19173;SDS011;9719;49.322;8.536;2023-02-28T17:12:37;5.80;;;5.20;;
19173;SDS011;9719;49.322;8.536;2023-02-28T17:17:40;7.20;;;5.83;;
19173;SDS011;9719;49.322;8.536;2023-02-28T17:22:43;7.60;;;6.90;;
19173;SDS011;9719;49.322;8.536;2023-02-28T17:27:46;6.97;;;5.83;;
19173;SDS011;9719;49.322;8.536;2023-02-28T17:32:48;6.30;;;5.70;;
19173;SDS011;9719;49.322;8.536;2023-02-28T17:37:50;7.57;;;6.27;;
19173;SDS011;9719;49.322;8.536;2023-02-28T17:42:53;6.80;;;5.93;;
19173;SDS011;9719;49.322;8.536;2023-02-28T17:47:56;6.10;;;5.37;;
19173;SDS011;9719;49.322;8.536;2023-02-28T17:52:58;7.20;;;5.60;;
19173;SDS011;9719;49.322;8.536;2023-02-28T17:58:01;8.67;;;7.83;;
19173;SDS011;9719;49.322;8.536;2023-02-28T18:03:04;8.23;;;6.73;;
19173;SDS011;9719;49.322;8.536;2023-02-28T18:08:05;7.00;;;5.77;;
19173;SDS011;9719;49.322;8.536;2023-02-28T18:13:09;8.77;;;6.03;;
19173;SDS011;9719;49.322;8.536;2023-02-28T18:18:12;7.73;;;6.93;;
19173;SDS011;9719;49.322;8.536;2023-02-28T18:23:15;8.13;;;7.03;;
19173;SDS011;9719;49.322;8.536;2023-02-28T18:28:20;7.10;;;6.23;;
19173;SDS011;9719;49.322;8.536;2023-02-28T18:33:22;9.17;;;6.33;;
19173;SDS011;9719;49.322;8.536;2023-02-28T18:38:24;8.43;;;7.63;;
19173;SDS011;9719;49.322;8.536;2023-02-28T18:43:27;9.67;;;6.93;;
19173;SDS011;9719;49.322;8.536;2023-02-28T18:48:29;7.20;;;6.50;;
19173;SDS011;9719;49.322;8.536;2023-02-28T18:53:32;7.33;;;6.57;;
19173;SDS011;9719;49.322;8.536;2023-02-28T18:58:36;7.53;;;6.63;;
19173;SDS011;9719;49.322;8.536;2023-02-28T19:03:37;7.40;;;6.40;;
19173;SDS011;9719;49.322;8.536;2023-02-28T19:08:39;8.37;;;7.47;;
19173;SDS011;9719;49.322;8.536;2023-02-28T19:13:43;8.60;;;6.83;;
19173;SDS011;9719;49.322;8.536;2023-02-28T19:18:45;8.17;;;7.37;;
19173;SDS011;9719;49.322;8.536;2023-02-28T19:23:47;8.67;;;6.70;;
19173;SDS011;9719;49.322;8.536;2023-02-28T19:28:50;8.40;;;7.60;;
19173;SDS011;9719;49.322;8.536;2023-02-28T19:33:52;9.77;;;7.83;;
19173;SDS011;9719;49.322;8.536;2023-02-28T19:38:54;10.30;;;7.70;;
19173;SDS011;9719;49.322;8.536;2023-02-28T19:43:57;8.47;;;7.67;;
19173;SDS011;9719;49.322;8.536;2023-02-28T19:48:58;8.67;;;7.40;;
19173;SDS011;9719;49.322;8.536;2023-02-28T19:54:00;7.77;;;6.90;;
19173;SDS011;9719;49.322;8.536;2023-02-28T19:59:04;10.50;;;8.47;;
19173;SDS011;9719;49.322;8.536;2023-02-28T20:04:06;8.70;;;7.47;;
19173;SDS011;9719;49.322;8.536;2023-02-28T20:09:08;7.40;;;6.53;;
19173;SDS011;9719;49.322;8.536;2023-02-28T20:14:11;7.00;;;6.17;;
19173;SDS011;9719;49.322;8.536;2023-02-28T20:19:14;11.63;;;8.13;;
19173;SDS011;9719;49.322;8.536;2023-02-28T20:24:16;10.70;;;8.27;;
19173;SDS011;9719;49.322;8.536;2023-02-28T20:29:21;7.93;;;7.13;;
19173;SDS011;9719;49.322;8.536;2023-02-28T20:34:23;8.43;;;7.50;;
19173;SDS011;9719;49.322;8.536;2023-02-28T20:39:26;8.70;;;7.77;;
19173;SDS011;9719;49.322;8.536;2023-02-28T20:44:29;9.53;;;8.23;;
19173;SDS011;9719;49.322;8.536;2023-02-28T20:49:30;10.87;;;7.80;;
19173;SDS011;9719;49.322;8.536;2023-02-28T20:54:32;7.17;;;6.57;;
19173;SDS011;9719;49.322;8.536;2023-02-28T20:59:36;9.63;;;6.33;;
19173;SDS011;9719;49.322;8.536;2023-02-28T21:04:38;7.87;;;6.97;;
19173;SDS011;9719;49.322;8.536;2023-02-28T21:09:40;8.13;;;6.43;;
19173;SDS011;9719;49.322;8.536;2023-02-28T21:14:43;9.30;;;7.93;;
19173;SDS011;9719;49.322;8.536;2023-02-28T21:19:45;7.97;;;6.90;;
19173;SDS011;9719;49.322;8.536;2023-02-28T21:24:47;8.50;;;6.93;;
19173;SDS011;9719;49.322;8.536;2023-02-28T21:29:49;8.77;;;6.70;;
19173;SDS011;9719;49.322;8.536;2023-02-28T21:34:52;9.03;;;6.97;;
19173;SDS011;9719;49.322;8.536;2023-02-28T21:39:54;8.37;;;7.07;;
19173;SDS011;9719;49.322;8.536;2023-02-28T21:44:57;9.53;;;7.20;;
19173;SDS011;9719;49.322;8.536;2023-02-28T21:50:00;8.70;;;7.17;;
19173;SDS011;9719;49.322;8.536;2023-02-28T21:55:02;9.40;;;7.33;;
19173;SDS011;9719;49.322;8.536;2023-02-28T22:00:06;7.03;;;6.33;;
19173;SDS011;9719;49.322;8.536;2023-02-28T22:05:09;6.57;;;5.63;;
19173;SDS011;9719;49.322;8.536;2023-02-28T22:10:11;8.03;;;6.47;;
19173;SDS011;9719;49.322;8.536;2023-02-28T22:15:14;7.17;;;6.20;;
19173;SDS011;9719;49.322;8.536;2023-02-28T22:20:16;7.83;;;6.93;;
19173;SDS011;9719;49.322;8.536;2023-02-28T22:25:18;7.30;;;6.37;;
19173;SDS011;9719;49.322;8.536;2023-02-28T22:30:21;7.43;;;6.23;;
19173;SDS011;9719;49.322;8.536;2023-02-28T22:35:22;7.17;;;6.47;;
19173;SDS011;9719;49.322;8.536;2023-02-28T22:40:24;7.00;;;6.00;;
19173;SDS011;9719;49.322;8.536;2023-02-28T22:45:27;7.17;;;6.47;;
19173;SDS011;9719;49.322;8.536;2023-02-28T22:50:28;7.47;;;6.37;;
19173;SDS011;9719;49.322;8.536;2023-02-28T22:55:30;7.33;;;6.33;;
19173;SDS011;9719;49.322;8.536;2023-02-28T23:00:33;8.83;;;7.60;;
19173;SDS011;9719;49.322;8.536;2023-02-28T23:05:35;8.37;;;7.40;;
19173;SDS011;9719;49.322;8.536;2023-02-28T23:10:39;8.17;;;7.47;;
19173;SDS011;9719;49.322;8.536;2023-02-28T23:15:42;9.30;;;6.87;;
19173;SDS011;9719;49.322;8.536;2023-02-28T23:20:45;9.93;;;6.77;;
19173;SDS011;9719;49.322;8.536;2023-02-28T23:25:46;10.57;;;9.53;;
19173;SDS011;9719;49.322;8.536;2023-02-28T23:30:49;11.07;;;8.60;;
19173;SDS011;9719;49.322;8.536;2023-02-28T23:35:51;7.37;;;6.63;;
19173;SDS011;9719;49.322;8.536;2023-02-28T23:40:53;7.87;;;7.07;;
19173;SDS011;9719;49.322;8.536;2023-02-28T23:45:56;10.10;;;6.73;;
19173;SDS011;9719;49.322;8.536;2023-02-28T23:51:01;8.77;;;7.17;;
19173;SDS011;9719;49.322;8.536;2023-02-28T23:56:08;8.50;;;7.63;;
